Mercur 210 — YP3257 — position and weather

sailwx.info

Track history (hours):
 
Tides and Currents Weather Stations Pressure Air Temp Water Temp Dewpoint Dewpoint Depression Visibility Wind Speed Wind Dir Waves Ship Positions

Mercur 210

Last reported at 2017-Oct-14 07:44 UTC. Time now 2017-Oct-20 12:37 UTC.
Position N 44°18' E 028°03'.

Length 239 m; draft 1.9 m.

Type: Ship. MMSI: 264163257.

Date/timePositionNaut miles runAvg speedWind from/ knotsBaromVisibWave heightAir tempDewpointWater temp
2017-Oct-14 07:44N 44°18' E 028°03'1 5.4
2017-Oct-14 07:28N 44°17' E 028°05'3 5.6
2017-Oct-14 07:00N 44°16' E 028°08'3 5.9
2017-Oct-14 06:30N 44°16' E 028°12'3 5.7
2017-Oct-14 06:00N 44°15' E 028°16'3 5.6
2017-Oct-14 05:30N 44°15' E 028°20'3 5.5
2017-Oct-14 05:00N 44°13' E 028°23'2 4.9
2017-Oct-14 04:30N 44°11' E 028°24'8 4.9
2017-Oct-14 02:55N 44°06' E 028°32'2 5.7
2017-Oct-14 02:30N 44°06' E 028°35'1 2.5
2017-Oct-14 01:59N 44°06' E 028°37'0 0.9
2017-Oct-14 01:26N 44°06' E 028°38'2 3.6
2017-Oct-14 01:00N 44°07' E 028°39'0 0.5
2017-Oct-14 00:28N 44°08' E 028°39'0 0.0
2017-Oct-13 23:58N 44°08' E 028°39'0 0.0
2017-Oct-13 23:30N 44°08' E 028°39'0 0.0
2017-Oct-13 23:00N 44°08' E 028°39'0 0.0
2017-Oct-13 22:28N 44°08' E 028°39'0 0.0
2017-Oct-13 21:58N 44°08' E 028°39'0 0.0
2017-Oct-13 21:27N 44°08' E 028°39'0 0.0
2017-Oct-13 21:00N 44°08' E 028°39'0 0.0
2017-Oct-13 20:30N 44°08' E 028°39'0 0.0
2017-Oct-13 19:55N 44°08' E 028°39'0 0.0
2017-Oct-13 19:28N 44°08' E 028°39'0 0.6
2017-Oct-13 18:59N 44°08' E 028°39'0 0.0
2017-Oct-13 18:30N 44°08' E 028°39'0 0.0
2017-Oct-13 18:00N 44°08' E 028°39'0 0.0
2017-Oct-13 17:25N 44°08' E 028°39'0 0.0
2017-Oct-13 16:58N 44°08' E 028°39'0 0.0
2017-Oct-13 16:29N 44°08' E 028°39'0 0.0
2017-Oct-13 15:58N 44°08' E 028°39'0 0.0
2017-Oct-13 15:30N 44°08' E 028°39'0 0.0
2017-Oct-13 15:00N 44°08' E 028°39'0 0.0
2017-Oct-13 14:30N 44°08' E 028°39'0 0.0
2017-Oct-13 13:58N 44°08' E 028°39'0 0.0
2017-Oct-13 13:30N 44°08' E 028°39'0 0.0
2017-Oct-13 12:58N 44°08' E 028°39'0 0.0
2017-Oct-13 12:30N 44°08' E 028°39'0 0.0
2017-Oct-13 12:00N 44°08' E 028°39'0 0.0
2017-Oct-13 11:28N 44°08' E 028°39'0 0.0
2017-Oct-13 10:58N 44°08' E 028°39'0 0.0
2017-Oct-13 10:28N 44°08' E 028°39'0 0.0
2017-Oct-13 10:00N 44°08' E 028°39'0 0.0
2017-Oct-13 09:30N 44°08' E 028°39'0 0.0
2017-Oct-13 08:58N 44°08' E 028°39'0 0.0
2017-Oct-13 08:30N 44°08' E 028°39'0 0.0
2017-Oct-13 07:58N 44°08' E 028°39'0 0.0
2017-Oct-13 07:30N 44°08' E 028°39'0 0.4
2017-Oct-13 07:00N 44°08' E 028°39'2 3.2
2017-Oct-13 06:30N 44°10' E 028°39'0 0.1
2017-Oct-13 05:58N 44°10' E 028°39'0 0.0
2017-Oct-13 05:29N 44°10' E 028°39'0 0.0
2017-Oct-13 04:58N 44°10' E 028°39'0 0.0
2017-Oct-13 04:29N 44°10' E 028°39'0 0.0
2017-Oct-13 03:55N 44°10' E 028°39'0 0.0
2017-Oct-13 03:29N 44°10' E 028°39'0 0.0
2017-Oct-13 02:59N 44°10' E 028°39'0 0.0
2017-Oct-13 02:29N 44°10' E 028°39'0 0.0
2017-Oct-13 01:55N 44°10' E 028°39'0 0.0
2017-Oct-13 01:30N 44°10' E 028°39'0 0.0
2017-Oct-13 00:59N 44°10' E 028°39'0 0.0
2017-Oct-13 00:28N 44°10' E 028°39'0 0.0
2017-Oct-12 23:54N 44°10' E 028°39'0 0.0
2017-Oct-12 23:29N 44°10' E 028°39'0 0.0
2017-Oct-12 22:59N 44°10' E 028°39'0 0.0
2017-Oct-12 22:28N 44°10' E 028°39'0 0.0
2017-Oct-12 21:59N 44°10' E 028°39'0 0.0
2017-Oct-12 21:24N 44°10' E 028°39'0 0.0
2017-Oct-12 20:58N 44°10' E 028°39'0 0.0
2017-Oct-12 20:28N 44°10' E 028°39'0 0.0
2017-Oct-12 20:00N 44°10' E 028°39'0 0.0
2017-Oct-12 19:30N 44°10' E 028°39'0 0.0
2017-Oct-12 19:00N 44°10' E 028°39'0 0.0
2017-Oct-12 18:30N 44°10' E 028°39'1 3.0
2017-Oct-12 18:01N 44°08' E 028°39'1 1.1
2017-Oct-12 17:29N 44°08' E 028°39'0 0.0
2017-Oct-12 17:00N 44°08' E 028°39'0 0.8
2017-Oct-12 16:30N 44°07' E 028°39'1 2.9
2017-Oct-12 16:00N 44°06' E 028°38'0 0.9
2017-Oct-12 15:30N 44°06' E 028°37'0 0.8
2017-Oct-12 15:00N 44°06' E 028°37'12 3.7
2017-Oct-12 11:54N 44°13' E 028°23'2 4.7
2017-Oct-12 11:23N 44°15' E 028°21'2 4.3
2017-Oct-12 11:00N 44°15' E 028°19'2 4.3
2017-Oct-12 10:30N 44°15' E 028°16'3 4.6
2017-Oct-12 09:47N 44°16' E 028°12'  
2017-Oct-05 03:04N 44°18' E 028°03'0 1.8
2017-Oct-05 02:57N 44°18' E 028°03'2 4.3
2017-Oct-05 02:30N 44°17' E 028°05'2 3.7
2017-Oct-05 02:00N 44°16' E 028°08'3 5.1
2017-Oct-05 01:30N 44°16' E 028°11'2 4.6
2017-Oct-05 01:00N 44°15' E 028°14'3 5.4
2017-Oct-05 00:30N 44°15' E 028°18'2 4.8
2017-Oct-05 00:00N 44°15' E 028°21'3 5.6
2017-Oct-04 23:30N 44°12' E 028°23'9 4.6
2017-Oct-04 21:28N 44°06' E 028°33'2 5.3
2017-Oct-04 21:00N 44°06' E 028°36'1 1.3
2017-Oct-04 20:30N 44°06' E 028°37'1 1.4
2017-Oct-04 20:00N 44°06' E 028°38'2 3.5
2017-Oct-04 19:30N 44°08' E 028°39'0 0.0
2017-Oct-04 19:00N 44°08' E 028°39'0 0.0
2017-Oct-04 18:30N 44°08' E 028°39'0 0.0
2017-Oct-04 18:00N 44°08' E 028°39'0 0.0
2017-Oct-04 17:30N 44°08' E 028°39'0 0.0
2017-Oct-04 16:59N 44°08' E 028°39'0 0.0
2017-Oct-04 16:29N 44°08' E 028°39'0 0.4
2017-Oct-04 15:59N 44°08' E 028°39'0 0.0
2017-Oct-04 15:28N 44°08' E 028°39'0 0.0
2017-Oct-04 14:55N 44°08' E 028°39'0 0.0
2017-Oct-04 14:29N 44°08' E 028°39'0 0.0
2017-Oct-04 14:00N 44°08' E 028°39'0 0.0
2017-Oct-04 13:30N 44°08' E 028°39'0 0.0
2017-Oct-04 13:00N 44°08' E 028°39'0 0.0
2017-Oct-04 12:24N 44°08' E 028°39'0 0.0
2017-Oct-04 11:54N 44°08' E 028°39'1 2.6
2017-Oct-04 11:28N 44°07' E 028°39'0 0.0
2017-Oct-04 10:54N 44°07' E 028°39'0 0.1
2017-Oct-04 10:27N 44°07' E 028°39'3 5.6
2017-Oct-04 10:00N 44°09' E 028°40'1 1.2
2017-Oct-04 09:26N 44°09' E 028°39'0 0.0
2017-Oct-04 08:55N 44°09' E 028°39'0 0.0
2017-Oct-04 08:25N 44°09' E 028°39'0 0.0
2017-Oct-04 07:58N 44°09' E 028°39'  
Track history (hours):
 
Tides and Currents Weather Stations Pressure Air Temp Water Temp Dewpoint Dewpoint Depression Visibility Wind Speed Wind Dir Waves Ship Positions

Mercur 210

Last reported at 2017-Oct-14 07:44 UTC. Time now 2017-Oct-20 12:37 UTC.
Position N 44°18' E 028°03'.

Length 239 m; draft 1.9 m.

Type: Ship. MMSI: 264163257.

Date/timePositionNaut miles runAvg speedWind from/ knotsBaromVisibWave heightAir tempDewpointWater temp
2017-Oct-14 07:44N 44°18' E 028°03'1 5.4
2017-Oct-14 07:28N 44°17' E 028°05'3 5.6
2017-Oct-14 07:00N 44°16' E 028°08'3 5.9
2017-Oct-14 06:30N 44°16' E 028°12'3 5.7
2017-Oct-14 06:00N 44°15' E 028°16'3 5.6
2017-Oct-14 05:30N 44°15' E 028°20'3 5.5
2017-Oct-14 05:00N 44°13' E 028°23'2 4.9
2017-Oct-14 04:30N 44°11' E 028°24'8 4.9
2017-Oct-14 02:55N 44°06' E 028°32'2 5.7
2017-Oct-14 02:30N 44°06' E 028°35'1 2.5
2017-Oct-14 01:59N 44°06' E 028°37'0 0.9
2017-Oct-14 01:26N 44°06' E 028°38'2 3.6
2017-Oct-14 01:00N 44°07' E 028°39'0 0.5
2017-Oct-14 00:28N 44°08' E 028°39'0 0.0
2017-Oct-13 23:58N 44°08' E 028°39'0 0.0
2017-Oct-13 23:30N 44°08' E 028°39'0 0.0
2017-Oct-13 23:00N 44°08' E 028°39'0 0.0
2017-Oct-13 22:28N 44°08' E 028°39'0 0.0
2017-Oct-13 21:58N 44°08' E 028°39'0 0.0
2017-Oct-13 21:27N 44°08' E 028°39'0 0.0
2017-Oct-13 21:00N 44°08' E 028°39'0 0.0
2017-Oct-13 20:30N 44°08' E 028°39'0 0.0
2017-Oct-13 19:55N 44°08' E 028°39'0 0.0
2017-Oct-13 19:28N 44°08' E 028°39'0 0.6
2017-Oct-13 18:59N 44°08' E 028°39'0 0.0
2017-Oct-13 18:30N 44°08' E 028°39'0 0.0
2017-Oct-13 18:00N 44°08' E 028°39'0 0.0
2017-Oct-13 17:25N 44°08' E 028°39'0 0.0
2017-Oct-13 16:58N 44°08' E 028°39'0 0.0
2017-Oct-13 16:29N 44°08' E 028°39'0 0.0
2017-Oct-13 15:58N 44°08' E 028°39'0 0.0
2017-Oct-13 15:30N 44°08' E 028°39'0 0.0
2017-Oct-13 15:00N 44°08' E 028°39'0 0.0
2017-Oct-13 14:30N 44°08' E 028°39'0 0.0
2017-Oct-13 13:58N 44°08' E 028°39'0 0.0
2017-Oct-13 13:30N 44°08' E 028°39'0 0.0
2017-Oct-13 12:58N 44°08' E 028°39'0 0.0
2017-Oct-13 12:30N 44°08' E 028°39'0 0.0
2017-Oct-13 12:00N 44°08' E 028°39'0 0.0
2017-Oct-13 11:28N 44°08' E 028°39'0 0.0
2017-Oct-13 10:58N 44°08' E 028°39'0 0.0
2017-Oct-13 10:28N 44°08' E 028°39'0 0.0
2017-Oct-13 10:00N 44°08' E 028°39'0 0.0
2017-Oct-13 09:30N 44°08' E 028°39'0 0.0
2017-Oct-13 08:58N 44°08' E 028°39'0 0.0
2017-Oct-13 08:30N 44°08' E 028°39'0 0.0
2017-Oct-13 07:58N 44°08' E 028°39'0 0.0
2017-Oct-13 07:30N 44°08' E 028°39'0 0.4
2017-Oct-13 07:00N 44°08' E 028°39'2 3.2
2017-Oct-13 06:30N 44°10' E 028°39'0 0.1
2017-Oct-13 05:58N 44°10' E 028°39'0 0.0
2017-Oct-13 05:29N 44°10' E 028°39'0 0.0
2017-Oct-13 04:58N 44°10' E 028°39'0 0.0
2017-Oct-13 04:29N 44°10' E 028°39'0 0.0
2017-Oct-13 03:55N 44°10' E 028°39'0 0.0
2017-Oct-13 03:29N 44°10' E 028°39'0 0.0
2017-Oct-13 02:59N 44°10' E 028°39'0 0.0
2017-Oct-13 02:29N 44°10' E 028°39'0 0.0
2017-Oct-13 01:55N 44°10' E 028°39'0 0.0
2017-Oct-13 01:30N 44°10' E 028°39'0 0.0
2017-Oct-13 00:59N 44°10' E 028°39'0 0.0
2017-Oct-13 00:28N 44°10' E 028°39'0 0.0
2017-Oct-12 23:54N 44°10' E 028°39'0 0.0
2017-Oct-12 23:29N 44°10' E 028°39'0 0.0
2017-Oct-12 22:59N 44°10' E 028°39'0 0.0
2017-Oct-12 22:28N 44°10' E 028°39'0 0.0
2017-Oct-12 21:59N 44°10' E 028°39'0 0.0
2017-Oct-12 21:24N 44°10' E 028°39'0 0.0
2017-Oct-12 20:58N 44°10' E 028°39'0 0.0
2017-Oct-12 20:28N 44°10' E 028°39'0 0.0
2017-Oct-12 20:00N 44°10' E 028°39'0 0.0
2017-Oct-12 19:30N 44°10' E 028°39'0 0.0
2017-Oct-12 19:00N 44°10' E 028°39'0 0.0
2017-Oct-12 18:30N 44°10' E 028°39'1 3.0
2017-Oct-12 18:01N 44°08' E 028°39'1 1.1
2017-Oct-12 17:29N 44°08' E 028°39'0 0.0
2017-Oct-12 17:00N 44°08' E 028°39'0 0.8
2017-Oct-12 16:30N 44°07' E 028°39'1 2.9
2017-Oct-12 16:00N 44°06' E 028°38'0 0.9
2017-Oct-12 15:30N 44°06' E 028°37'0 0.8
2017-Oct-12 15:00N 44°06' E 028°37'12 3.7
2017-Oct-12 11:54N 44°13' E 028°23'2 4.7
2017-Oct-12 11:23N 44°15' E 028°21'2 4.3
2017-Oct-12 11:00N 44°15' E 028°19'2 4.3
2017-Oct-12 10:30N 44°15' E 028°16'3 4.6
2017-Oct-12 09:47N 44°16' E 028°12'  
2017-Oct-05 03:04N 44°18' E 028°03'0 1.8
2017-Oct-05 02:57N 44°18' E 028°03'2 4.3
2017-Oct-05 02:30N 44°17' E 028°05'2 3.7
2017-Oct-05 02:00N 44°16' E 028°08'3 5.1
2017-Oct-05 01:30N 44°16' E 028°11'2 4.6
2017-Oct-05 01:00N 44°15' E 028°14'3 5.4
2017-Oct-05 00:30N 44°15' E 028°18'2 4.8
2017-Oct-05 00:00N 44°15' E 028°21'3 5.6
2017-Oct-04 23:30N 44°12' E 028°23'9 4.6
2017-Oct-04 21:28N 44°06' E 028°33'2 5.3
2017-Oct-04 21:00N 44°06' E 028°36'1 1.3
2017-Oct-04 20:30N 44°06' E 028°37'1 1.4
2017-Oct-04 20:00N 44°06' E 028°38'2 3.5
2017-Oct-04 19:30N 44°08' E 028°39'0 0.0
2017-Oct-04 19:00N 44°08' E 028°39'0 0.0
2017-Oct-04 18:30N 44°08' E 028°39'0 0.0
2017-Oct-04 18:00N 44°08' E 028°39'0 0.0
2017-Oct-04 17:30N 44°08' E 028°39'0 0.0
2017-Oct-04 16:59N 44°08' E 028°39'0 0.0
2017-Oct-04 16:29N 44°08' E 028°39'0 0.4
2017-Oct-04 15:59N 44°08' E 028°39'0 0.0
2017-Oct-04 15:28N 44°08' E 028°39'0 0.0
2017-Oct-04 14:55N 44°08' E 028°39'0 0.0
2017-Oct-04 14:29N 44°08' E 028°39'0 0.0
2017-Oct-04 14:00N 44°08' E 028°39'0 0.0
2017-Oct-04 13:30N 44°08' E 028°39'0 0.0
2017-Oct-04 13:00N 44°08' E 028°39'0 0.0
2017-Oct-04 12:24N 44°08' E 028°39'0 0.0
2017-Oct-04 11:54N 44°08' E 028°39'1 2.6
2017-Oct-04 11:28N 44°07' E 028°39'0 0.0
2017-Oct-04 10:54N 44°07' E 028°39'0 0.1
2017-Oct-04 10:27N 44°07' E 028°39'3 5.6
2017-Oct-04 10:00N 44°09' E 028°40'1 1.2
2017-Oct-04 09:26N 44°09' E 028°39'0 0.0
2017-Oct-04 08:55N 44°09' E 028°39'0 0.0
2017-Oct-04 08:25N 44°09' E 028°39'0 0.0
2017-Oct-04 07:58N 44°09' E 028°39'  

Dump ship's entire track history